createdAt,value
2019-05-10T00:00:36.105Z,995.91
2019-05-10T00:01:35.547Z,995.92
2019-05-10T00:02:35.112Z,995.98
2019-05-10T00:03:34.761Z,995.98
2019-05-10T00:04:34.318Z,995.98
2019-05-10T00:05:33.947Z,995.96
2019-05-10T00:06:33.428Z,996.02
2019-05-10T00:07:32.990Z,996.10
2019-05-10T00:08:35.462Z,995.98
2019-05-10T00:09:34.215Z,996.07
2019-05-10T00:10:33.800Z,996.01
2019-05-10T00:11:33.335Z,996.03
2019-05-10T00:12:32.881Z,996.07
2019-05-10T00:13:32.466Z,996.03
2019-05-10T00:14:32.009Z,995.99
2019-05-10T00:15:31.592Z,996.06
2019-05-10T00:16:31.103Z,996.04
2019-05-10T00:17:30.735Z,996.11
2019-05-10T00:18:30.272Z,996.22
2019-05-10T00:19:29.825Z,996.19
2019-05-10T00:20:29.378Z,996.10
2019-05-10T00:21:28.883Z,996.20
2019-05-10T00:22:28.382Z,996.19
2019-05-10T00:23:27.975Z,996.09
2019-05-10T00:24:27.543Z,996.19
2019-05-10T00:25:27.051Z,996.25
2019-05-10T00:26:26.578Z,996.34
2019-05-10T00:27:26.154Z,996.18
2019-05-10T00:28:25.693Z,996.19
2019-05-10T00:29:25.208Z,996.18
2019-05-10T00:30:24.925Z,996.24
2019-05-10T00:31:24.451Z,996.22
2019-05-10T00:32:24.000Z,996.15
2019-05-10T00:33:23.567Z,996.21
2019-05-10T00:34:23.133Z,996.16
2019-05-10T00:35:22.653Z,996.13
2019-05-10T00:36:22.181Z,996.16
2019-05-10T00:37:21.696Z,996.16
2019-05-10T00:38:21.292Z,996.19
2019-05-10T00:39:20.904Z,996.12
2019-05-10T00:40:20.521Z,996.20
2019-05-10T00:41:20.107Z,996.12
2019-05-10T00:42:19.645Z,996.13
2019-05-10T00:43:19.700Z,996.13
2019-05-10T00:44:18.979Z,996.13
2019-05-10T00:45:18.581Z,996.12
2019-05-10T00:46:18.116Z,996.18
2019-05-10T00:47:17.695Z,996.24
2019-05-10T00:48:17.198Z,996.20
2019-05-10T00:49:16.839Z,996.14
2019-05-10T00:50:16.424Z,996.20
2019-05-10T00:51:16.044Z,996.19
2019-05-10T00:52:15.640Z,996.17
2019-05-10T00:53:23.558Z,996.20
2019-05-10T00:54:21.892Z,996.17
2019-05-10T00:55:26.277Z,996.17
2019-05-10T00:56:24.863Z,996.17
2019-05-10T00:57:24.585Z,996.28
2019-05-10T00:58:24.068Z,996.22
2019-05-10T00:59:23.638Z,996.25
2019-05-10T01:00:23.170Z,996.24
2019-05-10T01:01:22.704Z,996.20
2019-05-10T01:02:22.187Z,996.26
2019-05-10T01:03:21.872Z,996.28
2019-05-10T01:04:21.332Z,996.32
2019-05-10T01:05:20.871Z,996.25
2019-05-10T01:06:20.449Z,996.31
2019-05-10T01:07:20.073Z,996.30
2019-05-10T01:08:19.599Z,996.31
2019-05-10T01:09:19.310Z,996.33
2019-05-10T01:10:18.752Z,996.33
2019-05-10T01:11:18.324Z,996.34
2019-05-10T01:12:17.857Z,996.49
2019-05-10T01:13:17.508Z,996.44
2019-05-10T01:14:17.056Z,996.41
2019-05-10T01:15:16.578Z,996.42
2019-05-10T01:16:16.175Z,996.47
2019-05-10T01:17:15.773Z,996.47
2019-05-10T01:18:15.283Z,996.47
2019-05-10T01:19:14.831Z,996.41
2019-05-10T01:20:14.356Z,996.40
2019-05-10T01:21:14.042Z,996.49
2019-05-10T01:22:13.573Z,996.53
2019-05-10T01:23:13.101Z,996.48
2019-05-10T01:24:12.667Z,996.48
2019-05-10T01:25:12.308Z,996.51
2019-05-10T01:26:11.842Z,996.47
2019-05-10T01:27:11.463Z,996.54
2019-05-10T01:28:11.040Z,996.50
2019-05-10T01:29:10.528Z,996.52
2019-05-10T01:30:10.044Z,996.53
2019-05-10T01:31:09.612Z,996.55
2019-05-10T01:32:09.137Z,996.54
2019-05-10T01:33:08.662Z,996.51
2019-05-10T01:34:13.067Z,996.56
2019-05-10T01:35:11.635Z,996.51
2019-05-10T01:36:11.147Z,996.50
2019-05-10T01:37:10.794Z,996.58
2019-05-10T01:38:10.312Z,996.57
2019-05-10T01:39:09.858Z,996.52
2019-05-10T01:40:09.449Z,996.59
2019-05-10T01:41:08.960Z,996.63
2019-05-10T01:42:08.551Z,996.58
2019-05-10T01:43:08.076Z,996.56
2019-05-10T01:44:07.754Z,996.55
2019-05-10T01:45:07.314Z,996.65
2019-05-10T01:46:06.805Z,996.62
2019-05-10T01:47:06.427Z,996.62
2019-05-10T01:48:06.071Z,996.64
2019-05-10T01:49:05.605Z,996.63
2019-05-10T01:50:05.074Z,996.63
2019-05-10T01:51:04.694Z,996.58
2019-05-10T01:52:04.238Z,996.54
2019-05-10T01:53:03.792Z,996.60
2019-05-10T01:54:03.351Z,996.57
2019-05-10T01:55:02.928Z,996.59
2019-05-10T01:56:02.424Z,996.63
2019-05-10T01:57:02.003Z,996.62
2019-05-10T01:58:01.554Z,996.57
2019-05-10T01:59:01.225Z,996.65
2019-05-10T02:00:00.729Z,996.63
2019-05-10T02:01:00.249Z,996.63
2019-05-10T02:01:59.882Z,996.63
2019-05-10T02:02:59.350Z,996.63
2019-05-10T02:03:58.875Z,996.58
2019-05-10T02:04:58.668Z,996.65
2019-05-10T02:05:58.044Z,996.75
2019-05-10T02:06:57.558Z,996.77
2019-05-10T02:07:56.952Z,996.71
2019-05-10T02:08:56.641Z,996.72
2019-05-10T02:09:56.199Z,996.73
2019-05-10T02:10:55.710Z,996.73
2019-05-10T02:11:55.177Z,996.74
2019-05-10T02:12:54.710Z,996.82
2019-05-10T02:13:54.235Z,996.86
2019-05-10T02:14:53.795Z,996.84
2019-05-10T02:15:53.253Z,996.96
2019-05-10T02:16:52.885Z,996.93
2019-05-10T02:17:52.438Z,997.03
2019-05-10T02:18:51.991Z,996.94
2019-05-10T02:19:51.578Z,997.00
2019-05-10T02:20:51.159Z,996.98
2019-05-10T02:21:50.755Z,996.98
2019-05-10T02:22:50.356Z,996.91
2019-05-10T02:23:49.840Z,997.01
2019-05-10T02:24:49.355Z,996.96
2019-05-10T02:25:48.877Z,996.99
2019-05-10T02:26:48.441Z,997.00
2019-05-10T02:27:48.011Z,996.99
2019-05-10T02:28:47.506Z,996.95
2019-05-10T02:29:47.134Z,996.94
2019-05-10T02:30:46.653Z,997.01
2019-05-10T02:31:46.268Z,997.04
2019-05-10T02:32:45.802Z,997.04
2019-05-10T02:33:45.374Z,997.05
2019-05-10T02:34:44.941Z,997.06
2019-05-10T02:35:44.549Z,997.00
2019-05-10T02:36:44.124Z,997.03
2019-05-10T02:38:43.197Z,997.12
2019-05-10T02:39:42.758Z,997.13
2019-05-10T02:40:42.230Z,997.06
2019-05-10T02:41:41.759Z,997.01
2019-05-10T02:42:41.289Z,996.98
2019-05-10T02:43:40.893Z,997.01
2019-05-10T02:44:40.418Z,997.03
2019-05-10T02:45:40.100Z,997.04
2019-05-10T02:46:39.664Z,997.03
2019-05-10T02:47:39.155Z,997.05
2019-05-10T02:48:38.737Z,996.98
2019-05-10T02:49:38.223Z,997.05
2019-05-10T02:50:37.870Z,997.09
2019-05-10T02:51:37.415Z,997.08
2019-05-10T02:52:36.921Z,997.12
2019-05-10T02:53:36.507Z,997.12
2019-05-10T02:54:36.022Z,997.12
2019-05-10T02:55:35.541Z,997.15
2019-05-10T02:56:35.083Z,997.16
2019-05-10T02:57:34.613Z,997.12
2019-05-10T02:58:34.242Z,997.14
2019-05-10T02:59:33.777Z,997.11
2019-05-10T03:00:33.312Z,997.17
2019-05-10T03:01:32.857Z,997.14
2019-05-10T03:02:32.354Z,997.16
2019-05-10T03:03:31.952Z,997.18
2019-05-10T03:04:31.537Z,997.21
2019-05-10T03:05:31.028Z,997.23
2019-05-10T03:06:30.562Z,997.17
2019-05-10T03:07:30.093Z,997.20
2019-05-10T03:08:29.741Z,997.20
2019-05-10T03:09:29.216Z,997.23
2019-05-10T03:10:28.769Z,997.23
2019-05-10T03:11:28.324Z,997.25
2019-05-10T03:12:27.885Z,997.26
2019-05-10T03:13:27.491Z,997.26
2019-05-10T03:14:27.019Z,997.20
2019-05-10T03:15:26.584Z,997.26
2019-05-10T03:16:26.193Z,997.25
2019-05-10T03:17:25.848Z,997.22
2019-05-10T03:18:25.377Z,997.28
2019-05-10T03:19:24.942Z,997.31
2019-05-10T03:20:24.509Z,997.29
2019-05-10T03:21:24.341Z,997.31
2019-05-10T03:22:23.646Z,997.33
2019-05-10T03:23:23.145Z,997.32
2019-05-10T03:24:27.587Z,997.33
2019-05-10T03:25:22.114Z,997.34
2019-05-10T03:26:21.797Z,997.40
2019-05-10T03:27:21.380Z,997.39
2019-05-10T03:28:20.946Z,997.35
2019-05-10T03:29:20.548Z,997.41
2019-05-10T03:30:20.160Z,997.37
2019-05-10T03:31:19.694Z,997.44
2019-05-10T03:32:19.316Z,997.44
2019-05-10T03:33:18.698Z,997.42
2019-05-10T03:34:18.221Z,997.48
2019-05-10T03:35:17.756Z,997.44
2019-05-10T03:36:17.324Z,997.39
2019-05-10T03:37:16.812Z,997.43
2019-05-10T03:38:16.360Z,997.45
2019-05-10T03:39:15.880Z,997.42
2019-05-10T03:40:15.483Z,997.42
2019-05-10T03:41:14.999Z,997.42
2019-05-10T03:42:14.564Z,997.46
2019-05-10T03:43:14.086Z,997.44
2019-05-10T03:44:13.669Z,997.58
2019-05-10T03:45:13.255Z,997.51
2019-05-10T03:46:12.768Z,997.52
2019-05-10T03:47:12.320Z,997.52
2019-05-10T03:48:11.807Z,997.55
2019-05-10T03:49:11.436Z,997.57
2019-05-10T03:50:10.918Z,997.49
2019-05-10T03:51:10.491Z,997.50
2019-05-10T03:52:10.128Z,997.65
2019-05-10T03:53:09.709Z,997.64
2019-05-10T03:54:09.302Z,997.56
2019-05-10T03:55:11.808Z,997.58
2019-05-10T03:56:10.546Z,997.64
2019-05-10T03:57:13.813Z,997.60
2019-05-10T03:58:09.579Z,997.60
2019-05-10T03:59:09.152Z,997.62
2019-05-10T04:00:08.749Z,997.64
2019-05-10T04:01:08.298Z,997.64
2019-05-10T04:02:07.803Z,997.61
2019-05-10T04:03:07.368Z,997.66
2019-05-10T04:04:09.491Z,997.63
2019-05-10T04:05:06.541Z,997.70
2019-05-10T04:06:06.137Z,997.69
2019-05-10T04:07:05.631Z,997.74
2019-05-10T04:08:05.162Z,997.69
2019-05-10T04:09:04.771Z,997.66
2019-05-10T04:10:04.261Z,997.64
2019-05-10T04:11:03.738Z,997.64
2019-05-10T04:12:03.216Z,997.71
2019-05-10T04:13:02.883Z,997.73
2019-05-10T04:14:02.239Z,997.69
2019-05-10T04:15:01.700Z,997.67
2019-05-10T04:16:01.171Z,997.70
2019-05-10T04:17:00.656Z,997.70
2019-05-10T04:18:00.114Z,997.78
2019-05-10T04:18:59.514Z,997.77
2019-05-10T04:19:59.067Z,997.75
2019-05-10T04:20:58.826Z,997.72
2019-05-10T04:21:58.376Z,997.77
2019-05-10T04:22:57.969Z,997.84
2019-05-10T04:23:57.534Z,997.83
2019-05-10T04:24:56.863Z,997.95
2019-05-10T04:25:56.430Z,997.95
2019-05-10T04:26:55.911Z,997.97
2019-05-10T04:27:55.624Z,997.98
2019-05-10T04:28:54.981Z,998.02
2019-05-10T04:29:54.602Z,997.95
2019-05-10T04:30:54.003Z,997.93
2019-05-10T04:31:53.480Z,997.91
2019-05-10T04:32:52.920Z,998.04
2019-05-10T04:33:52.599Z,998.05
2019-05-10T04:34:52.094Z,998.03
2019-05-10T04:35:51.482Z,998.00
2019-05-10T04:36:50.927Z,997.99
2019-05-10T04:37:50.446Z,997.93
2019-05-10T04:38:50.014Z,998.06
2019-05-10T04:39:49.676Z,998.00
2019-05-10T04:40:49.088Z,997.98
2019-05-10T04:41:48.748Z,998.03
2019-05-10T04:42:48.126Z,998.05
2019-05-10T04:43:47.629Z,998.04
2019-05-10T04:44:47.209Z,998.03
2019-05-10T04:45:49.669Z,997.98
2019-05-10T04:46:48.292Z,998.11
2019-05-10T04:47:47.730Z,998.07
2019-05-10T04:49:01.273Z,998.13
2019-05-10T04:50:01.358Z,998.17
2019-05-10T04:51:02.158Z,998.09
2019-05-10T04:52:02.914Z,998.10
2019-05-10T04:53:03.626Z,998.15
2019-05-10T04:54:04.313Z,998.24
2019-05-10T04:55:05.083Z,998.19
2019-05-10T04:56:05.817Z,998.14
2019-05-10T04:57:06.547Z,998.19
2019-05-10T04:58:07.225Z,998.21
2019-05-10T04:59:07.911Z,998.25
2019-05-10T05:00:06.863Z,998.25
2019-05-10T05:01:06.371Z,998.28
2019-05-10T05:02:07.789Z,998.23
2019-05-10T05:03:08.524Z,998.25
2019-05-10T05:04:09.359Z,998.33
2019-05-10T05:05:25.210Z,998.29
2019-05-10T05:06:23.359Z,998.31
2019-05-10T05:07:22.799Z,998.34
2019-05-10T05:08:22.373Z,998.33
2019-05-10T05:09:22.040Z,998.35
2019-05-10T05:10:21.468Z,998.28
2019-05-10T05:11:24.015Z,998.36
2019-05-10T05:12:22.796Z,998.28
2019-05-10T05:13:22.411Z,998.41
2019-05-10T05:14:21.910Z,998.38
2019-05-10T05:15:21.462Z,998.35
2019-05-10T05:16:21.085Z,998.39
2019-05-10T05:17:20.597Z,998.42
2019-05-10T05:18:20.155Z,998.44
2019-05-10T05:19:32.489Z,998.40
2019-05-10T05:20:30.749Z,998.41
2019-05-10T05:21:30.355Z,998.46
2019-05-10T05:22:29.895Z,998.42
2019-05-10T05:23:29.406Z,998.41
2019-05-10T05:24:28.957Z,998.46
2019-05-10T05:25:28.477Z,998.42
2019-05-10T05:26:28.025Z,998.47
2019-05-10T05:27:27.571Z,998.51
2019-05-10T05:28:27.115Z,998.50
2019-05-10T05:29:26.713Z,998.52
2019-05-10T05:30:26.211Z,998.52
2019-05-10T05:31:25.939Z,998.43
2019-05-10T05:32:25.465Z,998.48
2019-05-10T05:33:24.946Z,998.53
2019-05-10T05:34:27.512Z,998.53
2019-05-10T05:35:26.227Z,998.50
2019-05-10T05:36:25.851Z,998.58
2019-05-10T05:37:25.354Z,998.53
2019-05-10T05:38:24.693Z,998.47
2019-05-10T05:39:24.207Z,998.56
2019-05-10T05:40:23.697Z,998.59
2019-05-10T05:41:23.139Z,998.63
2019-05-10T05:42:28.082Z,998.65
2019-05-10T05:43:22.143Z,998.62
2019-05-10T05:44:26.217Z,998.60
2019-05-10T05:45:21.137Z,998.59
2019-05-10T05:46:20.579Z,998.70
2019-05-10T05:47:20.041Z,998.63
2019-05-10T05:48:21.270Z,998.68
2019-05-10T05:49:19.267Z,998.73
2019-05-10T05:50:18.754Z,998.69
2019-05-10T05:51:18.294Z,998.73
2019-05-10T05:52:17.828Z,998.78
2019-05-10T05:53:17.367Z,998.81
2019-05-10T05:54:20.982Z,998.84
2019-05-10T05:55:16.533Z,998.78
2019-05-10T05:56:16.097Z,998.84
2019-05-10T05:57:15.778Z,998.75
2019-05-10T05:58:25.681Z,998.80
2019-05-10T05:59:17.444Z,998.80
2019-05-10T06:00:14.426Z,998.90
2019-05-10T06:01:24.825Z,998.84
2019-05-10T06:02:13.571Z,998.86
2019-05-10T06:03:19.281Z,998.84
2019-05-10T06:04:12.918Z,998.88
2019-05-10T06:05:12.150Z,998.84
2019-05-10T06:06:21.648Z,998.87
2019-05-10T06:07:11.501Z,998.85
2019-05-10T06:08:22.701Z,998.87
2019-05-10T06:09:10.504Z,998.77
2019-05-10T06:10:17.059Z,998.82
2019-05-10T06:11:09.610Z,998.83
2019-05-10T06:12:12.646Z,998.83
2019-05-10T06:13:08.681Z,998.78
2019-05-10T06:14:10.734Z,998.80
2019-05-10T06:15:07.746Z,998.84
2019-05-10T06:16:12.857Z,998.88
2019-05-10T06:17:06.884Z,998.85
2019-05-10T06:18:09.746Z,998.90
2019-05-10T06:19:06.068Z,998.90
2019-05-10T06:20:07.347Z,998.88
2019-05-10T06:21:05.143Z,998.92
2019-05-10T06:22:06.767Z,998.89
2019-05-10T06:23:06.862Z,998.97
2019-05-10T06:24:07.477Z,998.92
2019-05-10T06:25:03.750Z,998.88
2019-05-10T06:26:03.193Z,998.92
2019-05-10T06:27:03.555Z,998.99
2019-05-10T06:28:02.300Z,998.96
2019-05-10T06:29:04.576Z,998.94
2019-05-10T06:30:04.457Z,998.94
2019-05-10T06:31:03.203Z,998.95
2019-05-10T06:32:02.787Z,998.96
2019-05-10T06:33:11.960Z,998.97
2019-05-10T06:34:01.963Z,998.98
2019-05-10T06:35:01.461Z,998.99
2019-05-10T06:36:01.054Z,999.01
2019-05-10T06:37:00.577Z,999.00
2019-05-10T06:38:00.124Z,999.02
2019-05-10T06:38:59.634Z,998.99
2019-05-10T06:39:59.255Z,999.01
2019-05-10T06:41:01.876Z,999.07
2019-05-10T06:42:00.430Z,999.03
2019-05-10T06:43:00.220Z,999.04
2019-05-10T06:43:59.681Z,999.06
2019-05-10T06:45:05.072Z,999.02
2019-05-10T06:45:58.755Z,999.04
2019-05-10T06:47:05.692Z,999.07
2019-05-10T06:47:57.964Z,999.10
2019-05-10T06:49:07.321Z,999.03
2019-05-10T06:49:57.008Z,999.06
2019-05-10T06:50:56.604Z,999.03
2019-05-10T06:51:56.189Z,999.16
2019-05-10T06:53:00.568Z,999.11
2019-05-10T06:53:55.430Z,999.09
2019-05-10T06:54:58.410Z,999.08
2019-05-10T06:55:54.455Z,999.08
2019-05-10T06:56:54.033Z,999.04
2019-05-10T06:57:59.171Z,999.05
2019-05-10T06:58:53.121Z,999.15
2019-05-10T06:59:57.034Z,999.04
2019-05-10T07:00:52.888Z,999.10
2019-05-10T07:01:52.277Z,999.09
2019-05-10T07:02:51.444Z,999.14
2019-05-10T07:03:50.939Z,999.10
2019-05-10T07:04:51.090Z,999.09
2019-05-10T07:05:50.104Z,999.16
2019-05-10T07:06:49.656Z,999.21
2019-05-10T07:07:49.200Z,999.17
2019-05-10T07:08:51.787Z,999.21
2019-05-10T07:10:03.947Z,999.20
2019-05-10T07:10:47.808Z,999.25
2019-05-10T07:11:47.344Z,999.19
2019-05-10T07:12:47.036Z,999.20
2019-05-10T07:13:52.039Z,999.25
2019-05-10T07:14:46.763Z,999.31
2019-05-10T07:15:45.729Z,999.23
2019-05-10T07:16:45.276Z,999.32
2019-05-10T07:17:47.214Z,999.28
2019-05-10T07:18:44.443Z,999.29
2019-05-10T07:19:53.480Z,999.31
2019-05-10T07:20:43.611Z,999.29
2019-05-10T07:21:44.912Z,999.32
2019-05-10T07:22:42.571Z,999.38
2019-05-10T07:23:47.607Z,999.36
2019-05-10T07:24:43.883Z,999.33
2019-05-10T07:25:44.549Z,999.43
2019-05-10T07:26:42.897Z,999.33
2019-05-10T07:27:42.479Z,999.32
2019-05-10T07:28:42.122Z,999.37
2019-05-10T07:29:42.985Z,999.42
2019-05-10T07:30:41.881Z,999.39
2019-05-10T07:31:41.378Z,999.38
2019-05-10T07:32:40.344Z,999.42
2019-05-10T07:33:40.220Z,999.40
2019-05-10T07:34:39.444Z,999.38
2019-05-10T07:35:39.029Z,999.44
2019-05-10T07:36:38.570Z,999.44
2019-05-10T07:37:38.105Z,999.36
2019-05-10T07:38:37.671Z,999.43
2019-05-10T07:39:37.264Z,999.42
2019-05-10T07:40:37.102Z,999.44
2019-05-10T07:41:36.485Z,999.43
2019-05-10T07:42:39.872Z,999.42
2019-05-10T07:43:35.665Z,999.40
2019-05-10T07:44:35.250Z,999.38
2019-05-10T07:45:34.684Z,999.43
2019-05-10T07:46:34.193Z,999.41
2019-05-10T07:47:33.833Z,999.41
2019-05-10T07:48:33.423Z,999.54
2019-05-10T07:49:32.998Z,999.31
2019-05-10T07:50:32.546Z,999.43
2019-05-10T07:51:32.184Z,999.44
2019-05-10T07:52:36.325Z,999.52
2019-05-10T07:53:31.248Z,999.44
2019-05-10T07:54:30.759Z,999.49
2019-05-10T07:55:30.353Z,999.52
2019-05-10T07:56:29.979Z,999.49
2019-05-10T07:57:29.486Z,999.52
2019-05-10T07:58:28.981Z,999.56
2019-05-10T07:59:33.864Z,999.61
2019-05-10T08:00:28.071Z,999.57
2019-05-10T08:01:32.146Z,999.61
2019-05-10T08:02:27.175Z,999.65
2019-05-10T08:03:26.581Z,999.55
2019-05-10T08:04:28.914Z,999.54
2019-05-10T08:05:25.762Z,999.58
2019-05-10T08:06:25.235Z,999.55
2019-05-10T08:07:24.930Z,999.51
2019-05-10T08:08:24.295Z,999.62
2019-05-10T08:09:23.801Z,999.62
2019-05-10T08:10:23.430Z,999.59
2019-05-10T08:11:22.940Z,999.54
2019-05-10T08:12:22.472Z,999.58
2019-05-10T08:13:25.079Z,999.67
2019-05-10T08:14:25.098Z,999.66
2019-05-10T08:15:24.627Z,999.59
2019-05-10T08:16:22.838Z,999.67
2019-05-10T08:17:20.081Z,999.65
2019-05-10T08:18:21.177Z,999.67
2019-05-10T08:19:19.201Z,999.64
2019-05-10T08:20:30.732Z,999.73
2019-05-10T08:21:22.229Z,999.71
2019-05-10T08:22:17.929Z,999.66
2019-05-10T08:23:17.999Z,999.69
2019-05-10T08:24:17.021Z,999.73
2019-05-10T08:25:16.635Z,999.66
2019-05-10T08:26:19.727Z,999.66
2019-05-10T08:27:15.720Z,999.68
2019-05-10T08:28:15.322Z,999.76
2019-05-10T08:29:16.867Z,999.75
2019-05-10T08:30:25.186Z,999.72
2019-05-10T08:31:14.417Z,999.73
2019-05-10T08:32:13.922Z,999.81
2019-05-10T08:33:14.359Z,999.69
2019-05-10T08:34:13.048Z,999.74
2019-05-10T08:35:17.350Z,999.78
2019-05-10T08:36:12.339Z,999.80
2019-05-10T08:37:12.849Z,999.76
2019-05-10T08:38:12.984Z,999.72
2019-05-10T08:39:13.916Z,999.81
2019-05-10T08:40:12.688Z,999.79
2019-05-10T08:41:14.714Z,999.80
2019-05-10T08:42:30.487Z,999.74
2019-05-10T08:43:13.158Z,999.79
2019-05-10T08:44:19.262Z,999.74
2019-05-10T08:45:12.557Z,999.72
2019-05-10T08:46:11.983Z,999.78
2019-05-10T08:47:15.724Z,999.78
2019-05-10T08:48:09.226Z,999.80
2019-05-10T08:49:08.855Z,999.75
2019-05-10T08:50:25.160Z,999.81
2019-05-10T08:51:08.044Z,999.74
2019-05-10T08:52:07.636Z,999.76
2019-05-10T08:53:11.141Z,999.71
2019-05-10T08:54:06.647Z,999.75
2019-05-10T08:55:06.272Z,999.74
2019-05-10T08:56:07.562Z,999.82
2019-05-10T08:57:05.549Z,999.74
2019-05-10T08:58:04.807Z,999.72
2019-05-10T08:59:09.377Z,999.74
2019-05-10T09:00:08.822Z,999.76
2019-05-10T09:01:16.247Z,999.82
2019-05-10T09:02:02.978Z,999.83
2019-05-10T09:03:09.271Z,999.79
2019-05-10T09:04:06.578Z,999.84
2019-05-10T09:05:02.584Z,999.77
2019-05-10T09:06:05.396Z,999.80
2019-05-10T09:07:02.888Z,999.80
2019-05-10T09:08:04.879Z,999.79
2019-05-10T09:09:01.907Z,999.78
2019-05-10T09:10:02.094Z,999.75
2019-05-10T09:10:59.004Z,999.84
2019-05-10T09:12:04.269Z,999.82
2019-05-10T09:12:58.415Z,999.88
2019-05-10T09:13:57.915Z,999.89
2019-05-10T09:15:05.810Z,999.81
2019-05-10T09:15:57.170Z,999.84
2019-05-10T09:17:01.750Z,999.81
2019-05-10T09:17:58.353Z,999.88
2019-05-10T09:18:55.433Z,999.82
2019-05-10T09:19:55.051Z,999.89
2019-05-10T09:21:00.454Z,999.92
2019-05-10T09:21:55.033Z,999.91
2019-05-10T09:22:53.699Z,999.84
2019-05-10T09:24:01.693Z,999.95
2019-05-10T09:24:53.199Z,999.95
2019-05-10T09:25:52.334Z,999.95
2019-05-10T09:26:55.547Z,1000.01
2019-05-10T09:27:53.089Z,999.94
2019-05-10T09:28:55.592Z,999.95
2019-05-10T09:29:52.889Z,999.95
2019-05-10T09:30:57.616Z,999.89
2019-05-10T09:31:52.815Z,999.93
2019-05-10T09:32:49.106Z,999.94
2019-05-10T09:33:49.872Z,999.95
2019-05-10T09:34:48.567Z,999.91
2019-05-10T09:35:52.367Z,1000.04
2019-05-10T09:36:47.404Z,999.99
2019-05-10T09:37:47.676Z,999.95
2019-05-10T09:38:46.970Z,999.96
2019-05-10T09:39:46.186Z,999.89
2019-05-10T09:40:51.571Z,999.92
2019-05-10T09:41:45.142Z,999.98
2019-05-10T09:42:44.993Z,999.97
2019-05-10T09:43:48.652Z,999.95
2019-05-10T09:44:46.071Z,1000.03
2019-05-10T09:45:43.892Z,1000.02
2019-05-10T09:46:43.305Z,1000.08
2019-05-10T09:47:43.624Z,1000.01
2019-05-10T09:48:45.096Z,1000.07
2019-05-10T09:49:46.800Z,1000.06
2019-05-10T09:50:46.791Z,1000.04
2019-05-10T09:51:42.247Z,1000.11
2019-05-10T09:52:40.978Z,1000.02
2019-05-10T09:53:40.770Z,1000.09
2019-05-10T09:54:40.239Z,1000.10
2019-05-10T09:55:39.790Z,1000.00
2019-05-10T09:56:44.377Z,1000.09
2019-05-10T09:57:38.855Z,1000.13
2019-05-10T09:58:38.821Z,1000.12
2019-05-10T09:59:37.986Z,1000.09
2019-05-10T10:00:38.159Z,1000.07
2019-05-10T10:01:37.241Z,1000.12
2019-05-10T10:02:37.311Z,1000.09
2019-05-10T10:03:43.178Z,1000.09
2019-05-10T10:04:37.206Z,1000.06
2019-05-10T10:05:39.906Z,1000.01
2019-05-10T10:06:36.959Z,1000.03
2019-05-10T10:07:34.624Z,1000.03
2019-05-10T10:08:34.165Z,1000.08
2019-05-10T10:09:41.994Z,1000.04
2019-05-10T10:10:33.399Z,1000.03
2019-05-10T10:11:32.961Z,1000.12
2019-05-10T10:12:32.503Z,1000.17
2019-05-10T10:13:39.837Z,1000.04
2019-05-10T10:14:38.021Z,1000.02
2019-05-10T10:15:34.206Z,1000.13
2019-05-10T10:16:30.911Z,1000.09
2019-05-10T10:17:30.864Z,1000.04
2019-05-10T10:18:30.055Z,1000.08
2019-05-10T10:19:29.429Z,1000.08
2019-05-10T10:20:30.065Z,1000.04
2019-05-10T10:21:35.074Z,1000.10
2019-05-10T10:22:28.047Z,1000.15
2019-05-10T10:23:30.662Z,1000.15
2019-05-10T10:24:28.451Z,1000.10
2019-05-10T10:25:29.809Z,1000.07
2019-05-10T10:26:26.891Z,1000.03
2019-05-10T10:27:34.254Z,1000.05
2019-05-10T10:28:25.403Z,1000.08
2019-05-10T10:29:28.729Z,1000.13
2019-05-10T10:30:24.538Z,1000.10
2019-05-10T10:31:29.049Z,1000.06
2019-05-10T10:32:24.639Z,1000.11
2019-05-10T10:33:28.131Z,1000.12
2019-05-10T10:34:22.789Z,1000.09
2019-05-10T10:35:26.860Z,1000.06
2019-05-10T10:36:21.708Z,1000.07
2019-05-10T10:37:27.820Z,1000.10
2019-05-10T10:38:20.869Z,1000.12
2019-05-10T10:39:22.991Z,1000.06
2019-05-10T10:40:19.960Z,1000.05
2019-05-10T10:41:26.148Z,1000.04
2019-05-10T10:42:18.937Z,999.95
2019-05-10T10:43:18.496Z,1000.03
2019-05-10T10:44:18.223Z,1000.05
2019-05-10T10:45:17.619Z,1000.03
2019-05-10T10:46:19.689Z,999.92
2019-05-10T10:47:17.993Z,999.93
2019-05-10T10:48:17.869Z,999.93
2019-05-10T10:49:17.815Z,999.92
2019-05-10T10:50:17.202Z,999.93
2019-05-10T10:51:14.927Z,999.89
2019-05-10T10:52:14.548Z,999.89
2019-05-10T10:53:14.086Z,999.90
2019-05-10T10:54:13.695Z,999.87
2019-05-10T10:55:13.541Z,999.95
2019-05-10T10:56:12.774Z,999.88
2019-05-10T10:57:12.442Z,999.93
2019-05-10T10:58:12.057Z,999.86
2019-05-10T10:59:11.524Z,999.92
2019-05-10T11:00:11.195Z,999.86
2019-05-10T11:01:21.485Z,999.76
2019-05-10T11:02:32.100Z,999.78
2019-05-10T11:03:09.829Z,999.74
2019-05-10T11:04:09.834Z,999.77
2019-05-10T11:05:08.884Z,999.96
2019-05-10T11:06:08.445Z,999.79
2019-05-10T11:07:10.906Z,999.90
2019-05-10T11:08:07.650Z,999.83
2019-05-10T11:09:07.159Z,999.90
2019-05-10T11:10:15.223Z,999.92
2019-05-10T11:11:06.323Z,999.84
2019-05-10T11:12:05.861Z,999.82
2019-05-10T11:13:10.942Z,999.81
2019-05-10T11:14:07.496Z,999.81
2019-05-10T11:15:04.478Z,999.83
2019-05-10T11:16:09.861Z,999.82
2019-05-10T11:17:03.544Z,999.77
2019-05-10T11:18:03.205Z,999.81
2019-05-10T11:19:03.769Z,999.75
2019-05-10T11:20:02.482Z,999.71
2019-05-10T11:21:02.226Z,999.75
2019-05-10T11:22:09.345Z,999.73
2019-05-10T11:23:01.152Z,999.66
2019-05-10T11:24:01.402Z,999.66
2019-05-10T11:25:06.913Z,999.67
2019-05-10T11:26:01.318Z,999.72
2019-05-10T11:27:01.080Z,999.75
2019-05-10T11:28:01.599Z,999.72
2019-05-10T11:28:58.521Z,999.80
2019-05-10T11:30:00.693Z,999.78
2019-05-10T11:30:57.709Z,999.71
2019-05-10T11:32:12.293Z,999.75
2019-05-10T11:32:56.758Z,999.73
2019-05-10T11:33:58.752Z,999.75
2019-05-10T11:34:55.858Z,999.68
2019-05-10T11:35:57.768Z,999.73
2019-05-10T11:36:55.019Z,999.71
2019-05-10T11:37:54.553Z,999.73
2019-05-10T11:38:58.448Z,999.68
2019-05-10T11:39:53.842Z,999.66
2019-05-10T11:40:53.392Z,999.73
2019-05-10T11:42:00.997Z,999.76
2019-05-10T11:42:52.693Z,999.69
2019-05-10T11:43:52.199Z,999.80
2019-05-10T11:44:54.574Z,999.67
2019-05-10T11:45:51.562Z,999.66
2019-05-10T11:46:50.966Z,999.70
2019-05-10T11:47:54.319Z,999.67
2019-05-10T11:48:50.970Z,999.70
2019-05-10T11:49:50.900Z,999.67
2019-05-10T11:50:51.299Z,999.76
2019-05-10T11:51:55.015Z,999.74
2019-05-10T11:52:51.031Z,999.69
2019-05-10T11:53:48.890Z,999.64
2019-05-10T11:54:47.391Z,999.73
2019-05-10T11:55:46.983Z,999.76
2019-05-10T11:56:46.608Z,999.78
2019-05-10T11:58:00.751Z,999.75
2019-05-10T11:59:45.321Z,999.67
2019-05-10T12:00:44.846Z,999.73
2019-05-10T12:01:44.357Z,999.62
2019-05-10T12:03:03.201Z,999.65
2019-05-10T12:03:43.660Z,999.62
2019-05-10T12:04:43.575Z,999.64
2019-05-10T12:05:42.830Z,999.65
2019-05-10T12:06:49.983Z,999.68
2019-05-10T12:07:45.765Z,999.63
2019-05-10T12:08:41.975Z,999.71
2019-05-10T12:09:42.503Z,999.72
2019-05-10T12:10:44.851Z,999.66
2019-05-10T12:11:51.515Z,999.65
2019-05-10T12:12:53.882Z,999.62
2019-05-10T12:13:39.363Z,999.66
2019-05-10T12:14:43.655Z,999.60
2019-05-10T12:15:42.590Z,999.62
2019-05-10T12:16:37.921Z,999.63
2019-05-10T12:17:37.538Z,999.67
2019-05-10T12:18:46.526Z,999.69
2019-05-10T12:19:44.502Z,999.70
2019-05-10T12:20:52.102Z,999.62
2019-05-10T12:21:35.978Z,999.70
2019-05-10T12:22:46.364Z,999.69
2019-05-10T12:23:45.738Z,999.70
2019-05-10T12:24:52.214Z,999.69